Austin, Texas
Traffic Map
Current Weather Conditions
Austin, Texas
Broken Clouds
Broken Clouds
90°
Feels Like: 97°
Wind Chill: 90° Ceiling: 3000
Heat Index: 97° Visibility: 10mi
Dew Point: 72° Wind: 6mph
Humidity: 55% Direction: ° ()
Pressure: 29.99in Gusts: 0mph
Raw Report DataKATT 201551Z AUTO VRB05KT 10SM BKN030 BKN039 32/22 A2999 RMK AO2 SLP140 T03220222
Traffic Incident Summary
Active as of:
Severity:
Category:
InformationThere was an issue retrieving the traffic information for this location. Please try a different location or try again shortly.
Advertisements
Track Severe Weather on mobile